AirNav   Duncan Aviation - Near you to keep you flying
 
 1423 users online  

I61 Hagerstown Airport
Hagerstown, Indiana, USA

GOING TO HAGERSTOWN?


FAA INFORMATION EFFECTIVE 26 JANUARY 2023

Location

FAA Identifier: I61
Lat/Long: 39-53-21.0000N 085-09-48.0000W
39-53.350000N 085-09.800000W
39.8891667,-85.1633333
(estimated)
Elevation: 1000 ft. / 305 m (estimated)
Variation: 03W (1985)
From city: 1 mile S of HAGERSTOWN, IN
Time zone: UTC -5 (UTC -4 during Daylight Saving Time)
Zip code: 47346

Airport Operations

Airport use: Open to the public
Activation date: 05/1957
Control tower: no
ARTCC: INDIANAPOLIS CENTER
FSS: TERRE HAUTE FLIGHT SERVICE STATION
NOTAMs facility: HUF (NOTAM-D service available)
Attendance: UNATNDD
Wind indicator: lighted
Segmented circle: no
Lights: ACTVT LIRL RWY 02/20 - CTAF.

Airport Communications

CTAF/UNICOM: 123.0
WX AWOS-3 at UWL (7 nm W): 132.375 (765-422-5701)
WX AWOS-3 at CEV (12 nm S): 118.325 (765-827-6649)
WX AWOS-3 at RID (17 nm SE): 121.225 (765-983-1903)

Nearby radio navigation aids

VOR radial/distance  VOR name  Freq  Var
MIEr156/23.4MUNCIE VOR/DME114.4003W
SHBr062/34.2SHELBYVILLE VOR/DME116.1501E
DQNr259/36.1DAYTON VOR/DME114.5001W

 
NDB name  Hdg/Dist  Freq  Var  ID
PNTHR351/6.922704WSQ ... --.-
NEW CASTLE092/7.238506WUWL ..- .-- .-..
BATESVILLE013/32.925405WHLB .... .-.. -...

Airport Services

Parking: tiedowns
Airframe service: NONE
Powerplant service: NONE
Bottled oxygen: NONE
Bulk oxygen: NONE

Runway Information

Runway 2/20

Dimensions: 4000 x 200 ft. / 1219 x 61 m
Surface: turf, in good condition
Runway edge lights: low intensity
Runway edge markings: DTHR MKD BY LGTS & YELLOW TIRES.
RUNWAY 2  RUNWAY 20
Latitude: 39-53.031000N39-53.650000N
Longitude: 085-09.996167W085-09.703667W
Elevation: 990.0 ft.990.0 ft.
Traffic pattern: leftleft
Displaced threshold: 200 ft.1070 ft.
Markings: NSTDNSTD
Runway end identifier lights: no
Obstructions: 50 ft. trees, 350 ft. from runway, 160 ft. left of centerline, 7:1 slope to clear
APCH SLOPE 20:1 FM DTHR; 75 FT TREES 1645 FT FM DTHR.
80 ft. trees, 180 ft. from runway, 90 ft. right of centerline, 2:1 slope to clear
APCH SLOPE 21:1 FM DTHR; 30 FT TREES 640 FT FM DTHR.

Airport Ownership and Management from official FAA records

Ownership: Publicly-owned
Owner: TOWN OF HAGERSTOWN
49 E COLLEGE ST
HAGERSTOWN, IN 47346
Phone 765-489-6171
Manager: MIKE HABZANSKY
49 E COLLEGE ST
HAGERSTOWN, IN 47346
Phone 765-520-7032

Airport Operational Statistics

Aircraft based on the field: 9
Single engine airplanes: 8
Ultralights: 1
    
Aircraft operations: avg 39/week *
63% transient general aviation
37% local general aviation
* for 12-month period ending 31 December 2019

Additional Remarks

FOR CD CTC COLUMBUS APCH AT 614-338-8537

Instrument Procedures

There are no published instrument procedures at I61.

Some nearby airports with instrument procedures:

KUWL - New Castle Henry County Airport / Marlatt Field (7 nm W)
KCEV - Mettel Field Airport (12 nm S)
KRID - Richmond Municipal Airport (17 nm SE)
I22 - Randolph County Airport (20 nm NE)
KMIE - Delaware County Regional Airport (24 nm NW)
 
Loc | Ops | Rwys | IFR | FBO | Links
Com | Nav | Svcs | Stats | Notes
Area around I61 (Hagerstown Airport)
 
Road maps at: MapQuest Bing Google
 
Aerial photo
WARNING: Photo may not be current or correct
Aerial photo of I61 (Hagerstown Airport)
Photo by by Wally Dilling
Photo taken 29-May-2006
north view

Do you have a better or more recent aerial photo of Hagerstown Airport that you would like to share? If so, please send us your photo.

 
Sectional chart

 
Airport distance calculator
Flying to Hagerstown Airport? Find the distance to fly.

From to I61

Sunrise and sunset
Times for 08-Feb-2023
 Local
(UTC-5)
 Zulu
(UTC)
Morning civil twilight07:1512:15
Sunrise07:4312:43
Sunset18:0723:07
Evening civil twilight18:3523:35

Current date and time
Zulu (UTC)  08-Feb-2023 21:40:44
Local (UTC-5)  08-Feb-2023 16:40:44
 
METAR
KRID 
17nm SE 
082115Z AUTO 14008KT 10SM BKN075 OVC090 09/02 A3018 RMK AO2
KMIE 
23nm NW 
082053Z VRB04KT 10SM CLR 10/M02 A3017 RMK AO2 SLP220 T01001017 58022
KAID 
25nm NW 
081755Z 13006KT 10SM CLR 07/M01 A3025
KOXD 
29nm SE 
082115Z AUTO 00000KT 10SM BKN050 14/M02 A3017 RMK AO2 T01361022
KHLB 
33nm S 
082115Z AUTO 13006KT 10SM OVC046 11/01 A3016 RMK A01
TAF
KDAY 
44nm E 
081737Z 0818/0918 14004KT P6SM SCT250 FM090200 12006KT 5SM -RA BR OVC035 FM090400 12008KT 3SM -RA BR OVC013 FM090900 16015KT 5SM BR VCSH OVC013 WS010/18045KT FM091200 17018G32KT 5SM BR OVC013 WS014/18050KT FM091400 19023G44KT 5SM -SHRA BKN022 WS006/19055KT
NOTAMs
Click for the latest NOTAMs
NOTAMs are issued by the DoD/FAA and will open in a separate window not controlled by AirNav.

 

 
 

Would you like to see your business listed on this page?

 If your business provides an interesting product or service to pilots, flight crews, aircraft, or users of the Hagerstown Airport, you should consider listing it here.  To start the listing process, click on the button below
 
Add a business
 

Other Pages about Hagerstown Airport

Update a link
 
Copyright © AirNav, LLC. All rights reserved. Privacy Policy  Contact